createdAt,value
2023-05-19T00:00:31.926Z,7.88
2023-05-19T00:05:36.287Z,9.02
2023-05-19T00:10:40.631Z,8.02
2023-05-19T00:15:47.255Z,11.60
2023-05-19T00:20:52.675Z,8.65
2023-05-19T00:25:58.395Z,11.80
2023-05-19T00:31:03.338Z,11.23
2023-05-19T00:36:07.141Z,10.68
2023-05-19T00:41:11.122Z,8.48
2023-05-19T00:46:16.125Z,6.90
2023-05-19T00:51:19.729Z,8.68
2023-05-19T00:56:28.149Z,14.82
2023-05-19T01:01:33.437Z,7.10
2023-05-19T01:06:37.635Z,8.13
2023-05-19T01:11:41.020Z,6.50
2023-05-19T01:16:49.002Z,12.20
2023-05-19T01:22:23.327Z,8.63
2023-05-19T01:27:42.913Z,9.18
2023-05-19T01:32:48.543Z,6.53
2023-05-19T01:37:52.345Z,10.18
2023-05-19T01:42:57.813Z,6.72
2023-05-19T01:48:12.698Z,7.40
2023-05-19T01:53:16.442Z,9.48
2023-05-19T01:58:22.150Z,7.13
2023-05-19T02:03:38.526Z,9.07
2023-05-19T02:08:44.745Z,11.98
2023-05-19T02:13:48.452Z,13.98
2023-05-19T02:18:54.730Z,11.10
2023-05-19T02:23:58.634Z,9.30
2023-05-19T02:29:04.489Z,9.93
2023-05-19T02:34:11.516Z,10.70
2023-05-19T02:39:16.161Z,14.02
2023-05-19T02:44:20.897Z,9.52
2023-05-19T02:49:26.060Z,12.27
2023-05-19T02:54:31.041Z,10.82
2023-05-19T02:59:38.326Z,14.50
2023-05-19T03:04:43.448Z,11.07
2023-05-19T03:09:47.120Z,8.98
2023-05-19T03:14:50.848Z,10.65
2023-05-19T03:19:55.867Z,11.93
2023-05-19T03:25:00.626Z,8.10
2023-05-19T03:30:06.826Z,11.65
2023-05-19T03:35:20.684Z,10.07
2023-05-19T03:40:27.819Z,9.23
2023-05-19T03:45:39.122Z,9.57
2023-05-19T03:51:05.141Z,8.95
2023-05-19T03:56:13.892Z,10.05
2023-05-19T04:06:23.741Z,9.77
2023-05-19T04:11:27.049Z,8.93
2023-05-19T04:16:31.021Z,9.85
2023-05-19T04:21:39.822Z,11.52
2023-05-19T04:26:47.063Z,9.68
2023-05-19T04:31:52.963Z,10.02
2023-05-19T04:36:59.299Z,9.90
2023-05-19T04:42:04.966Z,9.70
2023-05-19T04:47:12.564Z,9.05
2023-05-19T04:52:22.042Z,10.38
2023-05-19T04:57:29.338Z,10.30
2023-05-19T05:02:34.193Z,7.68
2023-05-19T05:07:41.966Z,7.38
2023-05-19T05:12:46.450Z,9.38
2023-05-19T05:17:51.933Z,7.85
2023-05-19T05:22:58.554Z,9.85
2023-05-19T05:28:05.341Z,11.07
2023-05-19T05:33:13.275Z,11.43
2023-05-19T05:38:20.890Z,10.05
2023-05-19T05:43:25.162Z,9.57
2023-05-19T05:48:35.313Z,6.00
2023-05-19T05:53:44.807Z,6.80
2023-05-19T05:58:50.938Z,7.15
2023-05-19T06:03:55.288Z,6.30
2023-05-19T06:09:01.949Z,5.72
2023-05-19T06:14:07.187Z,5.65
2023-05-19T06:19:41.964Z,9.27
2023-05-19T06:24:49.181Z,4.55
2023-05-19T06:29:53.057Z,7.05
2023-05-19T06:34:56.995Z,7.60
2023-05-19T06:40:04.048Z,6.45
2023-05-19T06:45:11.414Z,6.43
2023-05-19T06:50:18.713Z,4.70
2023-05-19T06:55:27.106Z,6.45
2023-05-19T07:00:32.194Z,6.50
2023-05-19T07:05:37.788Z,5.82
2023-05-19T07:10:45.279Z,7.53
2023-05-19T07:15:56.038Z,7.30
2023-05-19T07:21:02.408Z,5.93
2023-05-19T07:26:08.887Z,5.30
2023-05-19T07:31:15.210Z,4.53
2023-05-19T07:36:19.063Z,5.85
2023-05-19T07:41:26.283Z,6.65
2023-05-19T07:46:30.615Z,5.68
2023-05-19T07:51:35.797Z,4.57
2023-05-19T07:56:41.563Z,4.45
2023-05-19T08:01:46.532Z,4.07
2023-05-19T08:06:50.213Z,4.72
2023-05-19T08:11:55.830Z,4.22
2023-05-19T08:16:59.414Z,8.18
2023-05-19T08:22:03.733Z,6.72
2023-05-19T08:27:08.883Z,5.25
2023-05-19T08:32:13.606Z,6.10
2023-05-19T08:37:19.090Z,5.47
2023-05-19T08:42:24.850Z,7.90
2023-05-19T08:47:28.320Z,6.18
2023-05-19T08:52:34.800Z,3.03
2023-05-19T08:57:39.612Z,8.77
2023-05-19T09:02:50.759Z,3.83
2023-05-19T09:08:09.641Z,3.67
2023-05-19T09:13:17.385Z,5.53
2023-05-19T09:18:23.373Z,4.75
2023-05-19T09:23:29.984Z,4.60
2023-05-19T09:28:36.902Z,6.07
2023-05-19T09:33:43.654Z,5.35
2023-05-19T09:38:49.511Z,6.93
2023-05-19T09:43:57.469Z,3.58
2023-05-19T09:49:01.764Z,6.68
2023-05-19T09:54:05.469Z,3.85
2023-05-19T09:59:10.708Z,7.10
2023-05-19T10:04:15.105Z,6.15
2023-05-19T10:09:20.152Z,2.53
2023-05-19T10:14:27.344Z,4.32
2023-05-19T10:19:31.682Z,4.30
2023-05-19T10:24:35.481Z,4.70
2023-05-19T10:29:49.421Z,5.55
2023-05-19T10:35:28.301Z,8.50
2023-05-19T10:45:52.123Z,6.03
2023-05-19T10:50:57.162Z,5.55
2023-05-19T10:56:04.499Z,6.43
2023-05-19T11:01:14.925Z,8.53
2023-05-19T11:06:29.427Z,5.20
2023-05-19T11:11:46.940Z,5.65
2023-05-19T11:16:54.035Z,4.68
2023-05-19T11:22:12.272Z,4.00
2023-05-19T11:27:24.728Z,4.35
2023-05-19T11:32:32.106Z,3.65
2023-05-19T11:37:37.613Z,4.67
2023-05-19T11:42:42.707Z,3.55
2023-05-19T11:48:01.912Z,5.45
2023-05-19T11:53:10.582Z,5.93
2023-05-19T11:58:18.983Z,7.85
2023-05-19T12:03:28.535Z,5.25
2023-05-19T12:08:33.824Z,4.32
2023-05-19T12:13:37.882Z,3.05
2023-05-19T12:18:44.835Z,6.75
2023-05-19T12:23:51.361Z,4.40
2023-05-19T12:28:58.047Z,5.22
2023-05-19T12:34:03.110Z,6.03
2023-05-19T12:39:12.865Z,5.57
2023-05-19T12:44:18.573Z,8.63
2023-05-19T12:49:28.452Z,4.65
2023-05-19T12:54:35.134Z,3.13
2023-05-19T12:59:39.766Z,4.55
2023-05-19T13:04:46.530Z,6.50
2023-05-19T13:09:50.808Z,4.83
2023-05-19T13:14:55.664Z,3.63
2023-05-19T13:20:02.984Z,5.03
2023-05-19T13:25:08.306Z,5.30
2023-05-19T13:30:13.752Z,4.63
2023-05-19T13:35:19.009Z,5.75
2023-05-19T13:40:24.380Z,4.68
2023-05-19T13:45:30.499Z,3.83
2023-05-19T13:50:36.119Z,4.10
2023-05-19T13:55:42.245Z,4.03
2023-05-19T14:00:46.476Z,5.53
2023-05-19T14:05:53.829Z,4.28
2023-05-19T14:10:58.584Z,5.57
2023-05-19T14:16:03.327Z,2.45
2023-05-19T14:21:08.572Z,5.22
2023-05-19T14:26:12.586Z,5.40
2023-05-19T14:31:16.475Z,8.70
2023-05-19T14:36:21.342Z,3.58
2023-05-19T14:41:25.168Z,6.53
2023-05-19T14:46:29.741Z,4.18
2023-05-19T14:51:37.501Z,4.13
2023-05-19T14:56:48.934Z,4.57
2023-05-19T15:02:03.554Z,2.40
2023-05-19T15:07:11.001Z,2.78
2023-05-19T15:12:15.338Z,4.55
2023-05-19T15:17:20.755Z,3.33
2023-05-19T15:22:26.720Z,4.50
2023-05-19T15:27:31.073Z,3.53
2023-05-19T15:32:36.384Z,7.05
2023-05-19T15:37:42.383Z,3.22
2023-05-19T15:42:51.784Z,3.22
2023-05-19T15:47:56.168Z,3.13
2023-05-19T15:53:07.800Z,4.43
2023-05-19T15:58:14.107Z,3.70
2023-05-19T16:03:19.800Z,4.40
2023-05-19T16:08:25.288Z,3.20
2023-05-19T16:13:30.553Z,4.43
2023-05-19T16:18:34.086Z,3.42
2023-05-19T16:23:41.650Z,5.22
2023-05-19T16:28:45.824Z,2.77
2023-05-19T16:33:49.416Z,2.85
2023-05-19T16:38:54.628Z,4.15
2023-05-19T16:43:59.332Z,3.13
2023-05-19T16:49:04.048Z,3.15
2023-05-19T16:54:11.269Z,3.17
2023-05-19T16:59:14.678Z,2.70
2023-05-19T17:04:18.416Z,5.72
2023-05-19T17:09:26.125Z,2.40
2023-05-19T17:14:29.972Z,2.20
2023-05-19T17:19:34.798Z,3.50
2023-05-19T17:24:41.518Z,3.95
2023-05-19T17:29:45.192Z,5.55
2023-05-19T17:34:49.262Z,2.85
2023-05-19T17:39:54.318Z,2.33
2023-05-19T17:44:57.826Z,4.35
2023-05-19T17:50:01.917Z,3.28
2023-05-19T17:55:09.999Z,3.50
2023-05-19T18:00:14.624Z,3.00
2023-05-19T18:05:21.014Z,5.25
2023-05-19T18:10:27.821Z,4.43
2023-05-19T18:15:32.078Z,2.65
2023-05-19T18:20:39.451Z,2.70
2023-05-19T18:25:54.220Z,4.47
2023-05-19T18:31:01.316Z,3.00
2023-05-19T18:36:06.972Z,3.78
2023-05-19T18:41:14.710Z,5.10
2023-05-19T18:46:18.908Z,5.97
2023-05-19T18:51:22.459Z,3.08
2023-05-19T18:56:29.235Z,6.47
2023-05-19T19:01:32.994Z,3.88
2023-05-19T19:06:44.038Z,4.78
2023-05-19T19:11:50.000Z,4.72
2023-05-19T19:16:54.666Z,4.10
2023-05-19T19:21:59.122Z,3.13
2023-05-19T19:27:04.028Z,6.72
2023-05-19T19:32:09.496Z,2.80
2023-05-19T19:37:14.537Z,8.43
2023-05-19T19:42:22.795Z,6.80
2023-05-19T19:47:26.040Z,6.50
2023-05-19T19:52:32.031Z,12.65
2023-05-19T19:57:38.282Z,4.60
2023-05-19T20:03:02.855Z,5.82
2023-05-19T20:08:07.847Z,6.55
2023-05-19T20:13:18.808Z,3.15
2023-05-19T20:18:22.363Z,4.88
2023-05-19T20:23:27.480Z,3.78
2023-05-19T20:28:33.248Z,3.42
2023-05-19T20:33:36.653Z,4.45
2023-05-19T20:38:40.624Z,10.05
2023-05-19T20:43:47.046Z,4.57
2023-05-19T20:48:50.966Z,5.65
2023-05-19T20:53:54.674Z,4.47
2023-05-19T20:58:59.887Z,5.38
2023-05-19T21:04:07.444Z,6.07
2023-05-19T21:09:11.406Z,3.75
2023-05-19T21:14:17.814Z,3.83
2023-05-19T21:19:22.066Z,4.82
2023-05-19T21:24:26.024Z,3.35
2023-05-19T21:29:30.790Z,4.70
2023-05-19T21:34:36.463Z,5.18
2023-05-19T21:39:40.068Z,4.95
2023-05-19T21:44:45.987Z,3.35
2023-05-19T21:49:49.380Z,6.43
2023-05-19T21:54:53.425Z,6.47
2023-05-19T21:59:58.990Z,3.67
2023-05-19T22:05:02.401Z,5.82
2023-05-19T22:10:10.371Z,4.28
2023-05-19T22:15:17.106Z,3.53
2023-05-19T22:20:21.687Z,2.65
2023-05-19T22:25:25.822Z,3.05
2023-05-19T22:30:32.438Z,4.25
2023-05-19T22:35:36.676Z,4.38
2023-05-19T22:40:41.128Z,3.10
2023-05-19T22:45:48.945Z,3.90
2023-05-19T22:50:56.426Z,3.22
2023-05-19T22:55:59.839Z,2.53
2023-05-19T23:01:05.168Z,2.47
2023-05-19T23:06:09.665Z,3.97
2023-05-19T23:11:12.933Z,2.17
2023-05-19T23:16:19.093Z,3.28
2023-05-19T23:21:22.746Z,2.35
2023-05-19T23:26:26.686Z,4.63
2023-05-19T23:31:32.165Z,3.50
2023-05-19T23:36:39.042Z,2.45
2023-05-19T23:41:44.219Z,2.30
2023-05-19T23:46:51.360Z,4.00
2023-05-19T23:51:55.343Z,2.15
2023-05-19T23:57:00.182Z,2.78
